createdAt,value
2023-10-27T00:01:05.667Z,-24094.11
2023-10-27T00:03:33.252Z,-24094.30
2023-10-27T00:08:20.324Z,-24095.49
2023-10-27T00:10:47.954Z,-24094.99
2023-10-27T00:13:15.670Z,-24095.21
2023-10-27T00:15:43.328Z,-24095.36
2023-10-27T00:18:11.111Z,-24095.36
2023-10-27T00:20:38.719Z,-24095.86
2023-10-27T00:23:06.219Z,-24096.30
2023-10-27T00:28:41.258Z,-24098.13
2023-10-27T00:31:08.805Z,-24097.63
2023-10-27T00:33:36.507Z,-24097.73
2023-10-27T00:36:04.501Z,-24097.82
2023-10-27T00:38:32.081Z,-24098.01
2023-10-27T00:40:59.979Z,-24098.38
2023-10-27T00:43:27.628Z,-24099.00
2023-10-27T00:45:56.179Z,-24099.53
2023-10-27T00:48:23.774Z,-24100.31
2023-10-27T00:50:51.826Z,-24100.97
2023-10-27T00:53:21.128Z,-24101.57
2023-10-27T00:55:49.859Z,-24101.69
2023-10-27T00:58:17.519Z,-24101.57
2023-10-27T01:00:45.554Z,-24101.07
2023-10-27T01:03:13.017Z,-24100.59
2023-10-27T01:05:40.918Z,-24100.07
2023-10-27T01:08:08.423Z,-24099.88
2023-10-27T01:10:35.917Z,-24099.13
2023-10-27T01:13:03.685Z,-24098.66
2023-10-27T01:15:31.535Z,-24098.11
2023-10-27T01:17:59.101Z,-24097.51
2023-10-27T01:20:26.908Z,-24096.89
2023-10-27T01:22:54.823Z,-24096.36
2023-10-27T01:25:22.533Z,-24095.83
2023-10-27T01:27:50.239Z,-24095.21
2023-10-27T01:30:17.843Z,-24094.68
2023-10-27T01:32:46.723Z,-24094.15
2023-10-27T01:35:14.681Z,-24093.65
2023-10-27T01:37:42.396Z,-24093.06
2023-10-27T01:40:10.687Z,-24092.50
2023-10-27T01:42:38.330Z,-24091.56
2023-10-27T01:45:06.827Z,-24091.22
2023-10-27T01:47:34.429Z,-24091.41
2023-10-27T01:50:02.141Z,-24091.66
2023-10-27T01:52:29.645Z,-24091.78
2023-10-27T01:54:59.102Z,-24091.97
2023-10-27T01:57:26.908Z,-24091.81
2023-10-27T01:59:54.495Z,-24092.00
2023-10-27T02:02:21.980Z,-24091.91
2023-10-27T02:04:49.913Z,-24091.72
2023-10-27T02:07:17.684Z,-24091.41
2023-10-27T02:09:45.482Z,-24091.16
2023-10-27T02:12:13.298Z,-24090.84
2023-10-27T02:14:40.851Z,-24090.22
2023-10-27T02:17:08.450Z,-24089.79
2023-10-27T02:19:36.031Z,-24089.47
2023-10-27T02:22:03.708Z,-24089.13
2023-10-27T02:24:31.200Z,-24088.70
2023-10-27T02:26:59.659Z,-24088.85
2023-10-27T02:29:27.426Z,-24088.79
2023-10-27T02:31:56.706Z,-24088.51
2023-10-27T02:34:25.650Z,-24087.92
2023-10-27T02:36:53.317Z,-24087.51
2023-10-27T02:39:20.843Z,-24087.23
2023-10-27T02:41:48.335Z,-24086.80
2023-10-27T02:44:15.928Z,-24086.17
2023-10-27T02:46:43.409Z,-24085.64
2023-10-27T02:49:11.059Z,-24085.18
2023-10-27T02:51:38.658Z,-24084.73
2023-10-27T02:54:06.107Z,-24084.33
2023-10-27T02:56:34.172Z,-24083.75
2023-10-27T02:59:01.778Z,-24083.50
2023-10-27T03:01:29.279Z,-24083.06
2023-10-27T03:03:56.991Z,-24082.53
2023-10-27T03:06:24.696Z,-24082.28
2023-10-27T03:08:52.253Z,-24081.91
2023-10-27T03:11:19.783Z,-24081.38
2023-10-27T03:13:47.283Z,-24080.91
2023-10-27T03:16:17.790Z,-24080.50
2023-10-27T03:18:45.900Z,-24080.25
2023-10-27T03:21:13.592Z,-24079.75
2023-10-27T03:23:43.805Z,-24079.32
2023-10-27T03:26:11.429Z,-24079.07
2023-10-27T03:28:40.149Z,-24078.38
2023-10-27T03:31:07.917Z,-24077.70
2023-10-27T03:33:36.570Z,-24077.29
2023-10-27T03:36:04.452Z,-24076.45
2023-10-27T03:38:33.629Z,-24075.73
2023-10-27T03:41:01.133Z,-24075.05
2023-10-27T03:43:30.029Z,-24074.45
2023-10-27T03:45:57.664Z,-24073.87
2023-10-27T03:48:25.568Z,-24073.58
2023-10-27T03:50:54.269Z,-24073.30
2023-10-27T03:53:21.926Z,-24072.93
2023-10-27T03:55:53.829Z,-24072.55
2023-10-27T03:58:27.301Z,-24072.31
2023-10-27T04:00:58.021Z,-24071.83
2023-10-27T04:03:25.710Z,-24071.55
2023-10-27T04:05:53.349Z,-24071.00
2023-10-27T04:08:20.909Z,-24070.37
2023-10-27T04:10:48.423Z,-24070.12
2023-10-27T04:13:15.964Z,-24069.62
2023-10-27T04:15:46.049Z,-24069.47
2023-10-27T04:18:13.597Z,-24069.16
2023-10-27T04:20:41.303Z,-24068.63
2023-10-27T04:23:10.479Z,-24068.34
2023-10-27T04:25:40.126Z,-24067.91
2023-10-27T04:28:07.731Z,-24067.41
2023-10-27T04:30:37.631Z,-24066.97
2023-10-27T04:33:11.424Z,-24066.63
2023-10-27T04:35:39.164Z,-24066.16
